Latest Weather Observations for Dum In Mirrie

IDD60801

Issued at 7:11 pm CST Saturday 22 February 2020 (issued every 10 minutes, with the page automatically refreshed every 10 minutes)

About weather observations | Map of weather stations | Latest weather observations for NT | Other Formats
Station Details ID: 014277 Name: DUM IN MIRRIE AIRSTRIP Lat: -12.63 Lon: 130.37 Height: 3.5 m
Data from the previous 72 hours. | See also: Recent months at Dum In Mirrie
Date/Time
CST
Temp
°C
App
Temp
°C
Dew
Point
°C
Rel
Hum
%
Delta-T
°C
Wind Press
QNH
hPa
Press
MSL
hPa
Rain since
9am
mm
Dir  Spd
km/h
Gust
km/h
Spd
kts
Gust
kts
22/07:00pm 30.3 35.2 26.9 82 2.5 W 15 30 8 16 1005.6 1005.6 0.0
22/06:30pm 30.5 35.9 27.1 82 2.5 W 13 26 7 14 1005.0 1005.0 0.0
22/06:00pm 30.8 36.2 27.2 81 2.6 W 13 26 7 14 1005.0 1005.0 0.0
22/05:30pm 31.4 36.9 27.3 79 3.0 W 13 24 7 13 1005.0 1005.0 0.0
22/05:00pm 31.7 36.6 26.9 76 3.5 W 15 24 8 13 1005.2 1005.2 0.0
22/04:30pm 31.8 37.8 27.5 78 3.1 W 11 26 6 14 1005.3 1005.3 0.0
22/04:00pm 32.1 37.5 27.1 75 3.6 W 13 22 7 12 1005.5 1005.5 0.0
22/03:30pm 32.2 37.3 27.2 75 3.6 W 15 28 8 15 1005.8 1005.8 0.0
22/03:00pm 32.2 36.7 27.0 74 3.8 W 17 26 9 14 1006.2 1006.2 0.0
22/02:30pm 32.1 36.4 26.6 72 4.0 W 17 32 9 17 1006.5 1006.5 0.0
22/02:00pm 31.9 36.6 26.7 74 3.7 W 15 30 8 16 1007.0 1007.0 0.0
22/01:30pm 32.3 38.1 27.7 76 3.4 W 13 28 7 15 1007.4 1007.4 0.0
22/01:00pm 32.2 36.8 27.6 76 3.3 WSW 19 28 10 15 1007.8 1007.8 0.0
22/12:30pm 32.4 38.1 27.6 76 3.5 WSW 13 24 7 13 1008.2 1008.2 0.0
22/12:00pm 32.5 38.8 27.3 74 3.8 WSW 9 17 5 9 1008.1 1008.1 0.0
22/11:30am 31.8 37.1 27.0 76 3.5 WSW 13 28 7 15 1008.4 1008.4 0.0
22/11:00am 31.9 37.4 26.7 74 3.7 WSW 11 24 6 13 1008.8 1008.8 0.0
22/10:30am 31.6 37.5 27.3 78 3.1 WSW 11 24 6 13 1008.7 1008.7 0.0
22/10:00am 31.4 37.8 26.9 77 3.2 SW 7 17 4 9 1008.8 1008.8 0.0
22/09:30am 31.1 37.6 26.8 78 3.1 WSW 6 15 3 8 1008.7 1008.7 0.0
22/09:00am 30.6 36.2 26.3 78 3.1 WSW 9 26 5 14 1008.6 1008.6 0.0
22/08:30am 29.8 35.2 26.0 80 2.7 WSW 9 24 5 13 1008.4 1008.4 0.0
22/08:00am 29.8 35.2 26.0 80 2.7 WSW 9 19 5 10 1008.2 1008.2 0.0
22/07:30am 29.7 33.1 25.9 80 2.7 WSW 19 33 10 18 1007.8 1007.8 0.0
22/07:00am 29.6 33.6 26.2 82 2.4 WSW 17 33 9 18 1007.6 1007.6 0.0
22/06:30am 29.4 33.3 26.0 82 2.4 W 17 33 9 18 1007.4 1007.4 0.0
22/06:00am 29.6 32.6 26.2 82 2.4 WSW 22 33 12 18 1007.2 1007.2 0.0
22/05:30am 29.6 34.1 26.4 83 2.3 W 15 30 8 16 1007.3 1007.3 0.0
22/05:00am 29.5 33.9 26.3 83 2.3 W 15 26 8 14 1007.1 1007.1 0.0
22/04:30am 29.6 34.1 26.4 83 2.3 W 15 26 8 14 1006.9 1006.9 0.0
22/04:00am 29.6 33.7 26.4 83 2.3 W 17 30 9 16 1006.8 1006.8 0.0
22/03:30am 29.6 34.1 26.4 83 2.3 W 15 28 8 15 1006.8 1006.8 0.0
22/03:00am 29.5 34.1 25.9 81 2.6 W 13 22 7 12 1007.1 1007.1 0.0
22/02:30am 29.7 34.0 26.1 81 2.6 W 15 26 8 14 1007.5 1007.5 0.0
22/02:00am 29.6 34.9 26.4 83 2.3 W 11 22 6 12 1008.0 1008.0 0.0
22/01:30am 29.4 34.8 26.0 82 2.4 W 9 22 5 12 1008.6 1008.6 0.0
22/01:00am 29.5 34.4 25.9 81 2.6 W 11 20 6 11 1009.0 1009.0 0.0
22/12:30am 29.4 33.6 25.4 79 2.8 W 13 24 7 13 1009.4 1009.4 0.0
22/12:00am 29.4 34.7 25.8 81 2.6 W 9 19 5 10 1009.5 1009.5 0.0
 
Date/Time
CST
Temp
°C
App
Temp
°C
Dew
Point
°C
Rel
Hum
%
Delta-T
°C
Wind Press
QNH
hPa
Press
MSL
hPa
Rain since
9am
mm
Dir  Spd
km/h
Gust
km/h
Spd
kts
Gust
kts
21/11:30pm 29.4 34.0 25.4 79 2.8 W 11 20 6 11 1009.4 1009.4 0.0
21/11:00pm 29.5 34.4 25.3 78 3.0 W 9 20 5 11 1009.7 1009.7 0.0
21/10:30pm 29.6 33.6 25.1 77 3.2 W 13 24 7 13 1009.7 1009.7 0.0
21/10:00pm 29.6 34.0 25.1 77 3.2 W 11 20 6 11 1009.3 1009.3 0.0
21/09:30pm 29.4 33.3 24.9 77 3.2 W 13 22 7 12 1008.8 1008.8 0.0
21/09:00pm 29.5 34.7 25.7 80 2.7 W 9 17 5 9 1008.3 1008.3 0.0
21/08:30pm 29.5 35.0 26.1 82 2.4 W 9 19 5 10 1008.4 1008.4 0.0
21/08:00pm 29.5 35.1 25.7 80 2.7 W 7 15 4 8 1008.0 1008.0 0.0
21/07:30pm 29.6 35.2 25.8 80 2.7 W 7 13 4 7 1007.6 1007.6 0.0
21/07:00pm 29.7 34.7 25.4 78 3.0 W 9 17 5 9 1007.2 1007.2 0.0
21/06:30pm 29.9 34.5 25.4 77 3.2 W 11 20 6 11 1006.9 1006.9 0.0
21/06:00pm 30.0 35.2 25.7 78 3.1 W 9 17 5 9 1006.2 1006.2 0.0
21/05:30pm 30.1 34.6 25.8 78 3.1 WSW 13 22 7 12 1006.1 1006.1 0.0
21/05:00pm 30.6 34.7 25.2 73 3.8 WSW 13 22 7 12 1006.1 1006.1 0.0
21/04:30pm 31.3 35.0 23.9 64 5.2 WSW 11 20 6 11 1006.2 1006.2 0.0
21/04:00pm 31.4 35.6 24.8 68 4.6 WSW 11 20 6 11 1006.4 1006.4 0.0
21/03:30pm 32.0 37.6 25.8 69 4.4 WSW 7 15 4 8 1006.5 1006.5 0.0
21/03:00pm 31.4 36.0 25.3 70 4.3 WSW 11 20 6 11 1006.9 1006.9 0.0
21/02:30pm 31.4 36.5 25.5 71 4.2 WSW 9 19 5 10 1007.3 1007.3 0.0
21/02:00pm 32.1 38.0 26.2 71 4.2 SW 7 17 4 9 1007.5 1007.5 0.0
21/01:30pm 31.7 36.7 26.0 72 4.1 SW 11 20 6 11 1007.9 1007.9 0.0
21/01:00pm 31.7 36.9 26.3 73 3.9 SW 11 26 6 14 1008.2 1008.2 0.0
21/12:30pm 31.4 35.8 25.7 71 4.1 SW 13 24 7 13 1008.4 1008.4 0.0
21/12:00pm 31.1 34.9 24.7 68 4.5 SW 13 22 7 12 1008.5 1008.5 0.0
21/11:30am 30.6 34.0 24.7 71 4.1 SW 15 24 8 13 1008.6 1008.6 0.0
21/11:00am 30.5 33.9 25.3 74 3.7 SW 17 24 9 13 1008.7 1008.7 0.0
21/10:30am 30.4 35.8 26.6 80 2.7 SSW 11 20 6 11 1008.9 1008.9 0.0
21/10:00am 29.9 35.2 25.0 75 3.4 SW 6 11 3 6 1009.0 1009.0 0.0
21/09:30am 30.3 36.1 26.0 78 3.1 SW 7 17 4 9 1008.8 1008.8 0.0
21/09:00am 29.1 34.6 25.3 80 2.7 SW 6 15 3 8 1008.8 1008.8 24.0
21/08:30am 28.8 34.4 25.4 82 2.4 SW 6 11 3 6 1008.3 1008.3 24.0
21/08:00am 27.6 33.1 25.6 89 1.4 WSW 7 15 4 8 1008.0 1008.0 24.0
21/07:30am 25.4 32.0 25.2 99 0.1 CALM 0 0 0 0 1007.5 1007.5 24.0
21/07:00am 24.8 31.0 24.6 99 0.1 CALM 0 2 0 1 1007.4 1007.4 24.0
21/06:30am 24.8 31.0 24.6 99 0.1 CALM 0 4 0 2 1006.8 1006.8 24.0
21/06:00am 24.5 29.4 24.3 99 0.1 NNW 6 7 3 4 1006.3 1006.3 24.0
21/05:30am 24.4 29.6 24.2 99 0.1 ENE 4 4 2 2 1007.1 1007.1 24.0
21/05:00am 24.6 30.6 24.3 98 0.2 CALM 0 0 0 0 1007.3 1007.3 24.0
21/04:30am 24.4 29.5 24.1 98 0.2 SSE 4 9 2 5 1007.9 1007.9 24.0
21/04:00am 24.6 28.5 24.3 98 0.2 SSE 11 22 6 12 1008.5 1008.5 24.0
21/03:30am 25.7 30.6 24.7 94 0.7 SE 7 17 4 9 1008.6 1008.6 24.0
21/03:00am 25.7 30.7 24.8 95 0.6 NNE 7 11 4 6 1007.6 1007.6 24.0
21/02:30am 25.3 30.6 25.0 98 0.2 NE 6 9 3 5 1008.3 1008.3 24.0
21/02:00am 25.1 31.1 24.9 99 0.1 NNE 2 6 1 3 1008.8 1008.8 24.0
21/01:30am 25.0 30.6 24.8 99 0.1 E 4 6 2 3 1009.3 1009.3 24.0
21/01:00am 24.8 29.7 24.6 99 0.1 ENE 7 13 4 7 1009.4 1009.4 24.0
21/12:30am 24.6 29.0 24.4 99 0.1 ENE 9 19 5 10 1009.5 1009.5 23.8
21/12:00am 23.9 27.8 23.6 98 0.2 NE 9 19 5 10 1009.6 1009.6 23.4
 
Date/Time
CST
Temp
°C
App
Temp
°C
Dew
Point
°C
Rel
Hum
%
Delta-T
°C
Wind Press
QNH
hPa
Press
MSL
hPa
Rain since
9am
mm
Dir  Spd
km/h
Gust
km/h
Spd
kts
Gust
kts
20/11:30pm 23.8 28.3 23.6 99 0.1 ENE 6 13 3 7 1009.6 1009.6 23.4
20/11:00pm 23.9 28.8 23.7 99 0.1 E 4 6 2 3 1009.6 1009.6 23.2
20/10:30pm 23.9 28.8 23.7 99 0.1 ESE 4 7 2 4 1009.9 1009.9 22.8
20/10:00pm 23.8 28.7 23.6 99 0.1 ESE 4 9 2 5 1010.2 1010.2 20.8
20/09:30pm 23.7 27.5 23.5 99 0.1 SE 9 17 5 9 1009.7 1009.7 19.2
20/09:00pm 23.8 28.1 23.6 99 0.1 SE 7 17 4 9 1009.5 1009.5 12.6
20/08:30pm 24.1 26.3 23.2 95 0.6 SE 17 35 9 19 1009.1 1009.1 8.8
20/08:17pm 25.3 26.8 22.0 82 2.2 SSE 17 43 9 23 1008.4 1008.4 3.8
20/08:00pm 30.3 36.2 26.2 79 2.9 WSW 7 17 4 9 1007.1 1007.1 0.0
20/07:30pm 30.5 34.1 26.2 78 3.1 WSW 19 33 10 18 1007.0 1007.0 0.0
20/07:00pm 30.4 33.7 26.6 80 2.7 WSW 22 33 12 18 1006.3 1006.3 0.0
20/06:30pm 30.7 33.2 26.0 76 3.4 WSW 24 37 13 20 1005.2 1005.2 0.0
20/06:00pm 30.9 34.2 25.7 74 3.7 WSW 19 33 10 18 1004.8 1004.8 0.0
20/05:30pm 31.5 34.6 26.3 74 3.7 W 22 35 12 19 1004.2 1004.2 0.0
20/05:00pm 31.0 34.1 26.3 76 3.4 WSW 22 35 12 19 1004.2 1004.2 0.0
20/04:30pm 31.4 34.5 25.7 71 4.1 W 20 37 11 20 1004.3 1004.3 0.0
20/04:00pm 31.7 35.1 26.7 75 3.6 W 22 33 12 18 1004.5 1004.5 0.0
20/03:30pm 31.9 34.9 26.2 72 4.1 W 22 32 12 17 1004.8 1004.8 0.0
20/03:00pm 31.7 36.7 26.5 74 3.7 W 13 26 7 14 1005.5 1005.5 0.0
20/02:30pm 31.4 37.1 27.1 78 3.1 W 11 24 6 13 1006.2 1006.2 0.0
20/02:00pm 31.2 36.9 27.1 79 3.0 W 11 20 6 11 1006.5 1006.5 0.0
20/01:30pm 31.9 37.9 27.4 77 3.3 W 11 24 6 13 1007.0 1007.0 0.0
20/01:00pm 31.3 37.0 27.0 78 3.1 W 11 20 6 11 1007.3 1007.3 0.0
20/12:30pm 31.1 36.1 26.6 77 3.2 W 13 22 7 12 1007.3 1007.3 0.0
20/12:00pm 30.5 35.1 26.0 77 3.2 WSW 13 20 7 11 1007.2 1007.2 0.0
20/11:30am 30.0 35.1 25.5 77 3.2 W 9 19 5 10 1007.7 1007.7 0.0
20/11:00am 30.1 35.2 24.9 73 3.6 WNW 7 17 4 9 1008.3 1008.3 0.0
20/10:30am 30.7 35.9 25.1 72 3.9 W 7 17 4 9 1008.8 1008.8 0.0
20/10:00am 28.9 34.3 25.1 80 2.7 W 6 13 3 7 1008.9 1008.9 0.0
20/09:30am 27.9 33.0 24.7 83 2.2 WNW 6 11 3 6 1008.3 1008.3 0.0
20/09:00am 27.4 33.7 24.8 86 1.8 CALM 0 4 0 2 1007.8 1007.8 12.0
20/08:30am 26.8 33.8 25.8 94 0.7 CALM 0 0 0 0 1007.5 1007.5 12.0
20/08:00am 25.8 31.9 25.1 96 0.5 N 2 4 1 2 1007.3 1007.3 12.0
20/07:30am 25.3 30.9 24.8 97 0.3 NNE 4 6 2 3 1007.3 1007.3 12.0
20/07:00am 25.1 29.7 24.8 98 0.2 NNE 9 13 5 7 1006.9 1006.9 12.0
20/06:30am 24.4 29.0 24.1 98 0.2 NNE 7 13 4 7 1007.1 1007.1 12.0
20/06:00am 24.3 28.4 24.0 98 0.2 ENE 9 17 5 9 1006.8 1006.8 12.0
20/05:30am 23.6 27.0 23.4 99 0.1 ENE 11 19 6 10 1006.7 1006.7 12.0
20/05:00am 22.9 25.1 22.6 98 0.2 ENE 15 24 8 13 1006.6 1006.6 11.8
20/04:30am 22.9 25.1 22.6 98 0.2 E 15 24 8 13 1007.1 1007.1 9.2
20/04:00am 23.8 25.5 23.1 96 0.5 E 19 32 10 17 1007.4 1007.4 2.8
20/03:30am 25.4 27.0 22.1 82 2.2 E 17 30 9 16 1007.1 1007.1 0.0
20/03:00am 29.6 35.5 26.2 82 2.4 WNW 7 15 4 8 1006.6 1006.6 0.0
20/02:30am 29.6 35.5 26.2 82 2.4 WNW 7 13 4 7 1006.5 1006.5 0.0
20/02:00am 29.6 35.0 26.0 81 2.6 WNW 9 19 5 10 1005.9 1005.9 0.0
20/01:30am 29.6 34.6 25.4 78 3.0 WNW 9 19 5 10 1006.4 1006.4 0.0
20/01:00am 29.6 35.1 25.6 79 2.8 WNW 7 15 4 8 1006.6 1006.6 0.0
20/12:30am 29.7 35.3 25.7 79 2.8 WNW 7 17 4 9 1007.0 1007.0 0.0
20/12:00am 29.7 35.0 25.9 80 2.7 WNW 9 15 5 8 1007.4 1007.4 0.0
 
Date/Time
CST
Temp
°C
App
Temp
°C
Dew
Point
°C
Rel
Hum
%
Delta-T
°C
Wind Press
QNH
hPa
Press
MSL
hPa
Rain since
9am
mm
Dir  Spd
km/h
Gust
km/h
Spd
kts
Gust
kts
19/11:30pm 29.7 35.5 26.1 81 2.6 WNW 7 13 4 7 1007.2 1007.2 0.0
19/11:00pm 29.8 35.4 25.8 79 2.8 W 7 15 4 8 1007.4 1007.4 0.0
19/10:30pm 29.7 35.3 26.3 82 2.4 W 9 15 5 8 1007.1 1007.1 0.0
19/10:00pm 29.9 35.8 26.7 83 2.3 W 9 17 5 9 1006.8 1006.8 0.0
19/09:30pm 29.9 35.8 26.7 83 2.3 W 9 20 5 11 1006.2 1006.2 0.0
19/09:00pm 30.0 35.7 27.0 84 2.2 W 11 22 6 12 1006.0 1006.0 0.0
19/08:30pm 30.1 36.1 26.9 83 2.3 W 9 17 5 9 1005.9 1005.9 0.0
19/08:00pm 30.2 35.1 26.4 80 2.7 W 13 20 7 11 1005.7 1005.7 0.0
19/07:30pm 30.2 35.6 26.6 81 2.6 WSW 11 20 6 11 1004.9 1004.9 0.0

Other formats

Comma delimited format used in spreadsheet applications
http://www.bom.gov.au/fwo/IDD60801/IDD60801.94116.axf

JavaScript Object Notation format (JSON) in row-major order
http://www.bom.gov.au/fwo/IDD60801/IDD60801.94116.json

Data quality

Most of these data are generated automatically and are frequently updated. Quality checks on data are not normally performed. It is possible for incorrect values to appear. Refer to information at About Latest Weather Observations and please check the disclaimer before using these data.